sensor_id;sensor_type;location;lat;lon;timestamp;P1;durP1;ratioP1;P2;durP2;ratioP2
67181;SDS011;54114;53.524;49.396;2022-08-03T00:01:07;17.33;;;9.73;;
67181;SDS011;54114;53.524;49.396;2022-08-03T00:03:34;19.55;;;9.75;;
67181;SDS011;54114;53.524;49.396;2022-08-03T00:06:01;16.83;;;9.82;;
67181;SDS011;54114;53.524;49.396;2022-08-03T00:08:27;29.92;;;11.88;;
67181;SDS011;54114;53.524;49.396;2022-08-03T00:10:54;20.37;;;11.85;;
67181;SDS011;54114;53.524;49.396;2022-08-03T00:13:21;21.30;;;11.57;;
67181;SDS011;54114;53.524;49.396;2022-08-03T00:15:48;20.45;;;11.95;;
67181;SDS011;54114;53.524;49.396;2022-08-03T00:18:14;21.52;;;12.20;;
67181;SDS011;54114;53.524;49.396;2022-08-03T00:20:41;19.60;;;11.82;;
67181;SDS011;54114;53.524;49.396;2022-08-03T00:23:08;18.85;;;11.75;;
67181;SDS011;54114;53.524;49.396;2022-08-03T00:25:35;19.35;;;11.25;;
67181;SDS011;54114;53.524;49.396;2022-08-03T00:28:03;20.98;;;10.82;;
67181;SDS011;54114;53.524;49.396;2022-08-03T00:30:31;17.08;;;9.35;;
67181;SDS011;54114;53.524;49.396;2022-08-03T00:32:58;13.20;;;9.10;;
67181;SDS011;54114;53.524;49.396;2022-08-03T00:35:25;12.95;;;9.45;;
67181;SDS011;54114;53.524;49.396;2022-08-03T00:37:53;13.90;;;9.45;;
67181;SDS011;54114;53.524;49.396;2022-08-03T00:40:19;17.50;;;9.65;;
67181;SDS011;54114;53.524;49.396;2022-08-03T00:42:59;18.50;;;9.50;;
67181;SDS011;54114;53.524;49.396;2022-08-03T00:45:29;21.80;;;11.40;;
67181;SDS011;54114;53.524;49.396;2022-08-03T00:47:59;22.48;;;10.68;;
67181;SDS011;54114;53.524;49.396;2022-08-03T00:50:27;20.55;;;10.63;;
67181;SDS011;54114;53.524;49.396;2022-08-03T00:52:57;19.10;;;10.80;;
67181;SDS011;54114;53.524;49.396;2022-08-03T00:55:24;16.73;;;9.60;;
67181;SDS011;54114;53.524;49.396;2022-08-03T00:57:51;18.40;;;11.77;;
67181;SDS011;54114;53.524;49.396;2022-08-03T01:00:19;17.70;;;10.82;;
67181;SDS011;54114;53.524;49.396;2022-08-03T01:02:49;23.73;;;12.07;;
67181;SDS011;54114;53.524;49.396;2022-08-03T01:05:16;14.75;;;9.32;;
67181;SDS011;54114;53.524;49.396;2022-08-03T01:16:58;21.33;;;12.07;;
67181;SDS011;54114;53.524;49.396;2022-08-03T01:31:09;18.58;;;10.27;;
67181;SDS011;54114;53.524;49.396;2022-08-03T01:33:40;19.87;;;10.93;;
67181;SDS011;54114;53.524;49.396;2022-08-03T01:36:12;16.92;;;9.52;;
67181;SDS011;54114;53.524;49.396;2022-08-03T01:38:43;18.20;;;9.90;;
67181;SDS011;54114;53.524;49.396;2022-08-03T01:41:24;19.12;;;11.02;;
67181;SDS011;54114;53.524;49.396;2022-08-03T01:43:55;21.47;;;10.37;;
67181;SDS011;54114;53.524;49.396;2022-08-03T01:46:25;24.08;;;10.55;;
67181;SDS011;54114;53.524;49.396;2022-08-03T01:48:54;20.70;;;10.77;;
67181;SDS011;54114;53.524;49.396;2022-08-03T01:51:22;16.12;;;9.52;;
67181;SDS011;54114;53.524;49.396;2022-08-03T01:53:49;21.87;;;10.13;;
67181;SDS011;54114;53.524;49.396;2022-08-03T01:56:19;17.92;;;9.07;;
67181;SDS011;54114;53.524;49.396;2022-08-03T01:58:49;14.77;;;9.02;;
67181;SDS011;54114;53.524;49.396;2022-08-03T02:01:17;16.02;;;10.02;;
67181;SDS011;54114;53.524;49.396;2022-08-03T02:03:47;14.45;;;8.00;;
67181;SDS011;54114;53.524;49.396;2022-08-03T02:06:15;17.92;;;8.55;;
67181;SDS011;54114;53.524;49.396;2022-08-03T02:08:44;15.82;;;8.23;;
67181;SDS011;54114;53.524;49.396;2022-08-03T02:11:13;18.52;;;9.43;;
67181;SDS011;54114;53.524;49.396;2022-08-03T02:13:40;20.83;;;9.77;;
67181;SDS011;54114;53.524;49.396;2022-08-03T02:16:10;15.27;;;8.38;;
67181;SDS011;54114;53.524;49.396;2022-08-03T02:18:39;21.20;;;9.65;;
67181;SDS011;54114;53.524;49.396;2022-08-03T02:21:07;13.70;;;9.35;;
67181;SDS011;54114;53.524;49.396;2022-08-03T02:23:37;16.23;;;7.40;;
67181;SDS011;54114;53.524;49.396;2022-08-03T02:26:06;14.68;;;9.10;;
67181;SDS011;54114;53.524;49.396;2022-08-03T02:28:38;12.85;;;7.97;;
67181;SDS011;54114;53.524;49.396;2022-08-03T02:31:15;21.65;;;8.45;;
67181;SDS011;54114;53.524;49.396;2022-08-03T02:33:55;19.80;;;9.25;;
67181;SDS011;54114;53.524;49.396;2022-08-03T02:36:27;18.02;;;9.25;;
67181;SDS011;54114;53.524;49.396;2022-08-03T02:38:58;21.33;;;10.13;;
67181;SDS011;54114;53.524;49.396;2022-08-03T02:41:29;19.77;;;9.20;;
67181;SDS011;54114;53.524;49.396;2022-08-03T02:44:01;18.83;;;9.18;;
67181;SDS011;54114;53.524;49.396;2022-08-03T02:46:34;12.15;;;7.70;;
67181;SDS011;54114;53.524;49.396;2022-08-03T02:49:06;12.98;;;7.87;;
67181;SDS011;54114;53.524;49.396;2022-08-03T02:51:35;21.17;;;9.15;;
67181;SDS011;54114;53.524;49.396;2022-08-03T02:54:04;18.98;;;7.43;;
67181;SDS011;54114;53.524;49.396;2022-08-03T02:56:33;20.52;;;10.25;;
67181;SDS011;54114;53.524;49.396;2022-08-03T02:59:01;24.27;;;11.32;;
67181;SDS011;54114;53.524;49.396;2022-08-03T03:01:29;23.27;;;10.50;;
67181;SDS011;54114;53.524;49.396;2022-08-03T03:03:56;26.15;;;11.32;;
67181;SDS011;54114;53.524;49.396;2022-08-03T03:06:24;25.27;;;11.98;;
67181;SDS011;54114;53.524;49.396;2022-08-03T03:08:52;31.48;;;10.60;;
67181;SDS011;54114;53.524;49.396;2022-08-03T03:11:21;32.70;;;11.15;;
67181;SDS011;54114;53.524;49.396;2022-08-03T03:13:48;25.08;;;10.15;;
67181;SDS011;54114;53.524;49.396;2022-08-03T03:16:15;36.20;;;13.07;;
67181;SDS011;54114;53.524;49.396;2022-08-03T03:18:44;33.95;;;10.13;;
67181;SDS011;54114;53.524;49.396;2022-08-03T03:21:15;23.55;;;9.60;;
67181;SDS011;54114;53.524;49.396;2022-08-03T03:23:44;35.22;;;11.85;;
67181;SDS011;54114;53.524;49.396;2022-08-03T03:26:14;32.47;;;11.02;;
67181;SDS011;54114;53.524;49.396;2022-08-03T03:28:42;20.98;;;8.77;;
67181;SDS011;54114;53.524;49.396;2022-08-03T03:31:10;19.55;;;9.55;;
67181;SDS011;54114;53.524;49.396;2022-08-03T03:33:37;30.48;;;9.90;;
67181;SDS011;54114;53.524;49.396;2022-08-03T03:36:04;22.92;;;9.68;;
67181;SDS011;54114;53.524;49.396;2022-08-03T03:38:32;15.25;;;7.82;;
67181;SDS011;54114;53.524;49.396;2022-08-03T03:40:59;19.00;;;8.65;;
67181;SDS011;54114;53.524;49.396;2022-08-03T03:43:27;12.43;;;6.65;;
67181;SDS011;54114;53.524;49.396;2022-08-03T03:45:54;20.70;;;9.73;;
67181;SDS011;54114;53.524;49.396;2022-08-03T03:48:22;11.93;;;7.05;;
67181;SDS011;54114;53.524;49.396;2022-08-03T03:50:50;16.48;;;7.78;;
67181;SDS011;54114;53.524;49.396;2022-08-03T03:53:17;15.60;;;6.95;;
67181;SDS011;54114;53.524;49.396;2022-08-03T03:55:44;14.80;;;7.47;;
67181;SDS011;54114;53.524;49.396;2022-08-03T03:58:11;14.98;;;6.95;;
67181;SDS011;54114;53.524;49.396;2022-08-03T04:00:38;32.42;;;8.10;;
67181;SDS011;54114;53.524;49.396;2022-08-03T04:03:04;11.55;;;5.97;;
67181;SDS011;54114;53.524;49.396;2022-08-03T04:05:31;19.55;;;7.90;;
67181;SDS011;54114;53.524;49.396;2022-08-03T04:08:17;18.40;;;8.23;;
67181;SDS011;54114;53.524;49.396;2022-08-03T04:13:54;17.25;;;8.18;;
67181;SDS011;54114;53.524;49.396;2022-08-03T04:16:26;23.62;;;10.15;;
67181;SDS011;54114;53.524;49.396;2022-08-03T04:19:01;22.90;;;11.50;;
67181;SDS011;54114;53.524;49.396;2022-08-03T04:21:32;23.70;;;11.32;;
67181;SDS011;54114;53.524;49.396;2022-08-03T04:24:05;42.17;;;13.77;;
67181;SDS011;54114;53.524;49.396;2022-08-03T04:26:35;38.35;;;16.10;;
67181;SDS011;54114;53.524;49.396;2022-08-03T04:29:05;36.75;;;15.77;;
67181;SDS011;54114;53.524;49.396;2022-08-03T04:31:32;28.98;;;13.38;;
67181;SDS011;54114;53.524;49.396;2022-08-03T04:34:01;36.33;;;16.33;;
67181;SDS011;54114;53.524;49.396;2022-08-03T04:36:30;35.35;;;14.02;;
67181;SDS011;54114;53.524;49.396;2022-08-03T04:41:28;21.85;;;11.32;;
67181;SDS011;54114;53.524;49.396;2022-08-03T04:43:58;22.20;;;11.45;;
67181;SDS011;54114;53.524;49.396;2022-08-03T04:46:31;18.50;;;10.23;;
67181;SDS011;54114;53.524;49.396;2022-08-03T04:49:03;17.85;;;8.35;;
67181;SDS011;54114;53.524;49.396;2022-08-03T04:51:31;22.83;;;10.20;;
67181;SDS011;54114;53.524;49.396;2022-08-03T04:54:03;21.37;;;10.07;;
67181;SDS011;54114;53.524;49.396;2022-08-03T04:56:31;23.30;;;9.82;;
67181;SDS011;54114;53.524;49.396;2022-08-03T04:58:59;24.20;;;9.73;;
67181;SDS011;54114;53.524;49.396;2022-08-03T05:01:25;27.87;;;10.75;;
67181;SDS011;54114;53.524;49.396;2022-08-03T05:03:52;20.35;;;9.93;;
67181;SDS011;54114;53.524;49.396;2022-08-03T05:06:18;12.75;;;6.82;;
67181;SDS011;54114;53.524;49.396;2022-08-03T05:08:45;16.25;;;6.80;;
67181;SDS011;54114;53.524;49.396;2022-08-03T05:11:11;15.68;;;5.70;;
67181;SDS011;54114;53.524;49.396;2022-08-03T05:13:40;11.00;;;5.65;;
67181;SDS011;54114;53.524;49.396;2022-08-03T05:16:06;8.75;;;5.37;;
67181;SDS011;54114;53.524;49.396;2022-08-03T05:18:33;8.23;;;4.65;;
67181;SDS011;54114;53.524;49.396;2022-08-03T05:21:00;8.65;;;4.60;;
67181;SDS011;54114;53.524;49.396;2022-08-03T05:23:27;6.18;;;4.00;;
67181;SDS011;54114;53.524;49.396;2022-08-03T05:25:53;4.97;;;3.55;;
67181;SDS011;54114;53.524;49.396;2022-08-03T05:28:20;4.87;;;3.53;;
67181;SDS011;54114;53.524;49.396;2022-08-03T05:30:47;12.00;;;4.22;;
67181;SDS011;54114;53.524;49.396;2022-08-03T05:33:13;5.95;;;3.47;;
67181;SDS011;54114;53.524;49.396;2022-08-03T05:35:40;10.15;;;3.72;;
67181;SDS011;54114;53.524;49.396;2022-08-03T05:38:07;8.02;;;3.45;;
67181;SDS011;54114;53.524;49.396;2022-08-03T05:40:33;10.90;;;3.80;;
67181;SDS011;54114;53.524;49.396;2022-08-03T05:43:00;10.35;;;3.80;;
67181;SDS011;54114;53.524;49.396;2022-08-03T05:45:27;15.48;;;4.43;;
67181;SDS011;54114;53.524;49.396;2022-08-03T05:47:53;8.25;;;3.42;;
67181;SDS011;54114;53.524;49.396;2022-08-03T05:50:20;6.53;;;3.58;;
67181;SDS011;54114;53.524;49.396;2022-08-03T05:52:47;9.40;;;3.33;;
67181;SDS011;54114;53.524;49.396;2022-08-03T05:55:14;6.65;;;3.75;;
67181;SDS011;54114;53.524;49.396;2022-08-03T05:57:41;9.45;;;3.28;;
67181;SDS011;54114;53.524;49.396;2022-08-03T06:00:08;11.85;;;3.40;;
67181;SDS011;54114;53.524;49.396;2022-08-03T06:02:37;9.43;;;3.00;;
67181;SDS011;54114;53.524;49.396;2022-08-03T06:05:04;6.30;;;3.17;;
67181;SDS011;54114;53.524;49.396;2022-08-03T06:07:31;4.82;;;2.90;;
67181;SDS011;54114;53.524;49.396;2022-08-03T06:09:58;6.40;;;3.37;;
67181;SDS011;54114;53.524;49.396;2022-08-03T06:12:28;9.43;;;3.30;;
67181;SDS011;54114;53.524;49.396;2022-08-03T06:14:55;5.07;;;2.90;;
67181;SDS011;54114;53.524;49.396;2022-08-03T06:17:22;12.50;;;3.22;;
67181;SDS011;54114;53.524;49.396;2022-08-03T06:19:50;4.95;;;3.72;;
67181;SDS011;54114;53.524;49.396;2022-08-03T06:22:18;4.95;;;3.12;;
67181;SDS011;54114;53.524;49.396;2022-08-03T06:24:45;6.80;;;2.87;;
67181;SDS011;54114;53.524;49.396;2022-08-03T06:27:11;7.18;;;2.60;;
67181;SDS011;54114;53.524;49.396;2022-08-03T06:29:38;10.10;;;3.00;;
67181;SDS011;54114;53.524;49.396;2022-08-03T06:32:05;6.22;;;3.00;;
67181;SDS011;54114;53.524;49.396;2022-08-03T06:34:31;8.10;;;2.70;;
67181;SDS011;54114;53.524;49.396;2022-08-03T06:36:58;5.10;;;2.75;;
67181;SDS011;54114;53.524;49.396;2022-08-03T06:39:25;4.65;;;2.80;;
67181;SDS011;54114;53.524;49.396;2022-08-03T06:41:52;6.22;;;2.65;;
67181;SDS011;54114;53.524;49.396;2022-08-03T06:44:19;4.90;;;2.65;;
67181;SDS011;54114;53.524;49.396;2022-08-03T06:46:45;6.22;;;2.50;;
67181;SDS011;54114;53.524;49.396;2022-08-03T06:49:12;8.55;;;2.53;;
67181;SDS011;54114;53.524;49.396;2022-08-03T06:51:39;4.12;;;2.92;;
67181;SDS011;54114;53.524;49.396;2022-08-03T06:54:05;5.72;;;5.15;;
67181;SDS011;54114;53.524;49.396;2022-08-03T06:56:32;6.95;;;2.35;;
67181;SDS011;54114;53.524;49.396;2022-08-03T06:58:59;5.37;;;2.45;;
67181;SDS011;54114;53.524;49.396;2022-08-03T07:01:25;6.10;;;2.60;;
67181;SDS011;54114;53.524;49.396;2022-08-03T07:03:52;4.43;;;2.37;;
67181;SDS011;54114;53.524;49.396;2022-08-03T07:06:20;3.53;;;2.37;;
67181;SDS011;54114;53.524;49.396;2022-08-03T07:08:47;3.70;;;2.33;;
67181;SDS011;54114;53.524;49.396;2022-08-03T07:11:14;2.95;;;2.28;;
67181;SDS011;54114;53.524;49.396;2022-08-03T07:13:41;4.78;;;2.75;;
67181;SDS011;54114;53.524;49.396;2022-08-03T07:16:07;3.10;;;2.42;;
67181;SDS011;54114;53.524;49.396;2022-08-03T07:18:37;4.00;;;2.12;;
67181;SDS011;54114;53.524;49.396;2022-08-03T07:21:04;11.38;;;3.05;;
67181;SDS011;54114;53.524;49.396;2022-08-03T07:23:33;9.02;;;2.65;;
67181;SDS011;54114;53.524;49.396;2022-08-03T07:26:00;3.83;;;2.67;;
67181;SDS011;54114;53.524;49.396;2022-08-03T07:28:26;7.10;;;3.30;;
67181;SDS011;54114;53.524;49.396;2022-08-03T07:30:53;4.72;;;2.97;;
67181;SDS011;54114;53.524;49.396;2022-08-03T07:33:20;2.75;;;2.15;;
67181;SDS011;54114;53.524;49.396;2022-08-03T07:35:46;7.93;;;2.25;;
67181;SDS011;54114;53.524;49.396;2022-08-03T07:38:13;3.10;;;2.08;;
67181;SDS011;54114;53.524;49.396;2022-08-03T07:40:40;3.62;;;2.58;;
67181;SDS011;54114;53.524;49.396;2022-08-03T07:43:07;3.40;;;2.22;;
67181;SDS011;54114;53.524;49.396;2022-08-03T07:45:33;2.45;;;1.80;;
67181;SDS011;54114;53.524;49.396;2022-08-03T07:48:00;2.78;;;1.83;;
67181;SDS011;54114;53.524;49.396;2022-08-03T07:50:27;6.82;;;2.85;;
67181;SDS011;54114;53.524;49.396;2022-08-03T07:52:53;4.35;;;2.90;;
67181;SDS011;54114;53.524;49.396;2022-08-03T07:55:22;4.97;;;3.28;;
67181;SDS011;54114;53.524;49.396;2022-08-03T07:58:00;4.53;;;1.92;;
67181;SDS011;54114;53.524;49.396;2022-08-03T08:00:43;3.33;;;1.92;;
67181;SDS011;54114;53.524;49.396;2022-08-03T08:03:09;5.30;;;2.10;;
67181;SDS011;54114;53.524;49.396;2022-08-03T08:05:38;5.12;;;1.87;;
67181;SDS011;54114;53.524;49.396;2022-08-03T08:08:05;3.15;;;1.80;;
67181;SDS011;54114;53.524;49.396;2022-08-03T08:10:32;6.72;;;2.40;;
67181;SDS011;54114;53.524;49.396;2022-08-03T08:13:00;4.70;;;1.90;;
67181;SDS011;54114;53.524;49.396;2022-08-03T08:15:27;2.28;;;1.85;;
67181;SDS011;54114;53.524;49.396;2022-08-03T08:17:55;2.53;;;2.00;;
67181;SDS011;54114;53.524;49.396;2022-08-03T08:20:34;6.87;;;2.35;;
67181;SDS011;54114;53.524;49.396;2022-08-03T08:23:05;2.90;;;2.10;;
67181;SDS011;54114;53.524;49.396;2022-08-03T08:25:33;2.42;;;2.22;;
67181;SDS011;54114;53.524;49.396;2022-08-03T08:28:00;4.10;;;2.28;;
67181;SDS011;54114;53.524;49.396;2022-08-03T08:30:29;4.30;;;2.25;;
67181;SDS011;54114;53.524;49.396;2022-08-03T08:32:57;3.83;;;2.50;;
67181;SDS011;54114;53.524;49.396;2022-08-03T08:35:24;10.45;;;3.10;;
67181;SDS011;54114;53.524;49.396;2022-08-03T08:37:51;4.30;;;2.97;;
67181;SDS011;54114;53.524;49.396;2022-08-03T08:40:21;2.60;;;2.28;;
67181;SDS011;54114;53.524;49.396;2022-08-03T08:42:48;2.70;;;2.45;;
67181;SDS011;54114;53.524;49.396;2022-08-03T08:45:15;12.65;;;10.20;;
67181;SDS011;54114;53.524;49.396;2022-08-03T08:47:43;4.97;;;2.75;;
67181;SDS011;54114;53.524;49.396;2022-08-03T08:50:13;12.02;;;2.97;;
67181;SDS011;54114;53.524;49.396;2022-08-03T08:52:45;3.50;;;2.80;;
67181;SDS011;54114;53.524;49.396;2022-08-03T08:55:14;3.40;;;2.20;;
67181;SDS011;54114;53.524;49.396;2022-08-03T08:57:47;3.22;;;2.60;;
67181;SDS011;54114;53.524;49.396;2022-08-03T09:00:17;2.60;;;1.98;;
67181;SDS011;54114;53.524;49.396;2022-08-03T09:02:44;2.78;;;2.15;;
67181;SDS011;54114;53.524;49.396;2022-08-03T09:05:12;3.45;;;2.15;;
67181;SDS011;54114;53.524;49.396;2022-08-03T09:07:41;2.10;;;1.90;;
67181;SDS011;54114;53.524;49.396;2022-08-03T09:10:10;4.50;;;2.30;;
67181;SDS011;54114;53.524;49.396;2022-08-03T09:12:38;3.10;;;1.60;;
67181;SDS011;54114;53.524;49.396;2022-08-03T09:15:26;3.58;;;2.37;;
67181;SDS011;54114;53.524;49.396;2022-08-03T09:17:59;5.35;;;2.40;;
67181;SDS011;54114;53.524;49.396;2022-08-03T09:20:28;5.20;;;2.85;;
67181;SDS011;54114;53.524;49.396;2022-08-03T09:28:06;5.72;;;2.87;;
67181;SDS011;54114;53.524;49.396;2022-08-03T09:30:38;4.32;;;2.40;;
67181;SDS011;54114;53.524;49.396;2022-08-03T09:33:08;3.33;;;2.05;;
67181;SDS011;54114;53.524;49.396;2022-08-03T09:35:44;3.50;;;2.42;;
67181;SDS011;54114;53.524;49.396;2022-08-03T09:40:51;4.78;;;2.60;;
67181;SDS011;54114;53.524;49.396;2022-08-03T09:43:20;5.72;;;3.85;;
67181;SDS011;54114;53.524;49.396;2022-08-03T09:45:49;6.80;;;3.12;;
67181;SDS011;54114;53.524;49.396;2022-08-03T09:48:24;4.90;;;3.15;;
67181;SDS011;54114;53.524;49.396;2022-08-03T09:50:54;3.45;;;2.33;;
67181;SDS011;54114;53.524;49.396;2022-08-03T09:53:23;6.87;;;2.28;;
67181;SDS011;54114;53.524;49.396;2022-08-03T09:55:51;4.07;;;2.47;;
67181;SDS011;54114;53.524;49.396;2022-08-03T09:58:20;7.43;;;2.55;;
67181;SDS011;54114;53.524;49.396;2022-08-03T10:03:31;2.28;;;2.08;;
67181;SDS011;54114;53.524;49.396;2022-08-03T10:08:44;3.45;;;2.33;;
67181;SDS011;54114;53.524;49.396;2022-08-03T10:11:11;4.22;;;2.50;;
67181;SDS011;54114;53.524;49.396;2022-08-03T10:13:55;4.70;;;2.70;;
67181;SDS011;54114;53.524;49.396;2022-08-03T10:16:22;7.35;;;3.85;;
67181;SDS011;54114;53.524;49.396;2022-08-03T10:18:48;6.10;;;3.75;;
67181;SDS011;54114;53.524;49.396;2022-08-03T10:21:16;4.95;;;2.45;;
67181;SDS011;54114;53.524;49.396;2022-08-03T10:23:45;3.78;;;1.90;;
67181;SDS011;54114;53.524;49.396;2022-08-03T10:26:14;3.72;;;2.40;;
67181;SDS011;54114;53.524;49.396;2022-08-03T10:28:47;3.85;;;2.20;;
67181;SDS011;54114;53.524;49.396;2022-08-03T10:31:15;2.97;;;2.00;;
67181;SDS011;54114;53.524;49.396;2022-08-03T10:33:43;4.00;;;2.37;;
67181;SDS011;54114;53.524;49.396;2022-08-03T10:36:15;2.00;;;1.83;;
67181;SDS011;54114;53.524;49.396;2022-08-03T10:38:43;2.45;;;2.15;;
67181;SDS011;54114;53.524;49.396;2022-08-03T10:41:21;4.97;;;2.80;;
67181;SDS011;54114;53.524;49.396;2022-08-03T10:43:57;3.25;;;2.58;;
67181;SDS011;54114;53.524;49.396;2022-08-03T10:46:29;4.97;;;3.08;;
67181;SDS011;54114;53.524;49.396;2022-08-03T10:48:58;9.18;;;3.30;;
67181;SDS011;54114;53.524;49.396;2022-08-03T10:51:25;4.12;;;2.65;;
67181;SDS011;54114;53.524;49.396;2022-08-03T10:53:56;4.78;;;2.25;;
67181;SDS011;54114;53.524;49.396;2022-08-03T10:56:37;3.37;;;2.45;;
67181;SDS011;54114;53.524;49.396;2022-08-03T11:02:11;2.35;;;2.00;;
67181;SDS011;54114;53.524;49.396;2022-08-03T11:04:39;4.15;;;2.33;;
67181;SDS011;54114;53.524;49.396;2022-08-03T11:07:20;2.53;;;2.05;;
67181;SDS011;54114;53.524;49.396;2022-08-03T11:09:52;2.53;;;1.75;;
67181;SDS011;54114;53.524;49.396;2022-08-03T11:12:21;7.40;;;2.08;;
67181;SDS011;54114;53.524;49.396;2022-08-03T11:14:54;2.37;;;1.97;;
67181;SDS011;54114;53.524;49.396;2022-08-03T11:17:21;1.98;;;1.70;;
67181;SDS011;54114;53.524;49.396;2022-08-03T11:19:49;5.45;;;2.22;;
67181;SDS011;54114;53.524;49.396;2022-08-03T11:22:18;4.40;;;2.10;;
67181;SDS011;54114;53.524;49.396;2022-08-03T11:30:03;3.75;;;2.37;;
67181;SDS011;54114;53.524;49.396;2022-08-03T11:35:10;8.18;;;2.35;;
67181;SDS011;54114;53.524;49.396;2022-08-03T11:46:02;2.47;;;2.17;;
67181;SDS011;54114;53.524;49.396;2022-08-03T11:48:41;6.20;;;2.20;;
67181;SDS011;54114;53.524;49.396;2022-08-03T11:51:19;2.75;;;2.00;;
67181;SDS011;54114;53.524;49.396;2022-08-03T11:53:54;6.75;;;2.12;;
67181;SDS011;54114;53.524;49.396;2022-08-03T11:56:23;3.67;;;2.10;;
67181;SDS011;54114;53.524;49.396;2022-08-03T11:58:54;3.67;;;2.00;;
67181;SDS011;54114;53.524;49.396;2022-08-03T12:01:23;3.78;;;2.20;;
67181;SDS011;54114;53.524;49.396;2022-08-03T12:03:50;3.37;;;2.28;;
67181;SDS011;54114;53.524;49.396;2022-08-03T12:06:17;5.07;;;2.40;;
67181;SDS011;54114;53.524;49.396;2022-08-03T12:08:44;3.22;;;2.45;;
67181;SDS011;54114;53.524;49.396;2022-08-03T12:11:13;4.50;;;2.05;;
67181;SDS011;54114;53.524;49.396;2022-08-03T12:13:41;5.35;;;2.50;;
67181;SDS011;54114;53.524;49.396;2022-08-03T12:16:18;2.78;;;1.80;;
67181;SDS011;54114;53.524;49.396;2022-08-03T12:18:57;6.85;;;2.20;;
67181;SDS011;54114;53.524;49.396;2022-08-03T12:21:26;5.57;;;2.72;;
67181;SDS011;54114;53.524;49.396;2022-08-03T12:23:57;4.60;;;2.50;;
67181;SDS011;54114;53.524;49.396;2022-08-03T12:26:29;4.40;;;2.33;;
67181;SDS011;54114;53.524;49.396;2022-08-03T12:29:19;10.87;;;2.40;;
67181;SDS011;54114;53.524;49.396;2022-08-03T12:31:47;4.62;;;2.47;;
67181;SDS011;54114;53.524;49.396;2022-08-03T12:34:14;6.20;;;2.58;;
67181;SDS011;54114;53.524;49.396;2022-08-03T12:36:51;9.05;;;2.83;;
67181;SDS011;54114;53.524;49.396;2022-08-03T12:39:24;8.95;;;2.50;;
67181;SDS011;54114;53.524;49.396;2022-08-03T12:41:54;3.78;;;2.10;;
67181;SDS011;54114;53.524;49.396;2022-08-03T12:44:30;5.65;;;2.25;;
67181;SDS011;54114;53.524;49.396;2022-08-03T12:47:00;2.35;;;1.77;;
67181;SDS011;54114;53.524;49.396;2022-08-03T12:49:28;4.65;;;2.28;;
67181;SDS011;54114;53.524;49.396;2022-08-03T12:52:19;7.50;;;3.10;;
67181;SDS011;54114;53.524;49.396;2022-08-03T12:54:58;5.55;;;2.60;;
67181;SDS011;54114;53.524;49.396;2022-08-03T12:57:38;4.80;;;3.25;;
67181;SDS011;54114;53.524;49.396;2022-08-03T13:00:12;7.43;;;3.85;;
67181;SDS011;54114;53.524;49.396;2022-08-03T13:02:44;4.57;;;3.03;;
67181;SDS011;54114;53.524;49.396;2022-08-03T13:05:11;4.78;;;3.20;;
67181;SDS011;54114;53.524;49.396;2022-08-03T13:07:42;4.90;;;3.28;;
67181;SDS011;54114;53.524;49.396;2022-08-03T13:10:11;6.30;;;3.55;;
67181;SDS011;54114;53.524;49.396;2022-08-03T13:12:55;6.28;;;3.12;;
67181;SDS011;54114;53.524;49.396;2022-08-03T13:15:26;4.75;;;2.78;;
67181;SDS011;54114;53.524;49.396;2022-08-03T13:17:54;5.12;;;3.03;;
67181;SDS011;54114;53.524;49.396;2022-08-03T13:20:21;6.60;;;4.22;;
67181;SDS011;54114;53.524;49.396;2022-08-03T13:22:49;8.30;;;4.82;;
67181;SDS011;54114;53.524;49.396;2022-08-03T13:25:16;4.30;;;2.72;;
67181;SDS011;54114;53.524;49.396;2022-08-03T13:27:44;9.18;;;3.08;;
67181;SDS011;54114;53.524;49.396;2022-08-03T13:30:12;4.60;;;2.58;;
67181;SDS011;54114;53.524;49.396;2022-08-03T13:32:39;4.80;;;2.70;;
67181;SDS011;54114;53.524;49.396;2022-08-03T13:35:07;3.33;;;2.45;;
67181;SDS011;54114;53.524;49.396;2022-08-03T13:37:35;5.07;;;2.83;;
67181;SDS011;54114;53.524;49.396;2022-08-03T13:40:03;10.10;;;3.00;;
67181;SDS011;54114;53.524;49.396;2022-08-03T13:42:32;6.35;;;4.35;;
67181;SDS011;54114;53.524;49.396;2022-08-03T13:45:01;4.03;;;3.10;;
67181;SDS011;54114;53.524;49.396;2022-08-03T13:47:29;7.95;;;3.72;;
67181;SDS011;54114;53.524;49.396;2022-08-03T13:49:55;7.12;;;3.12;;
67181;SDS011;54114;53.524;49.396;2022-08-03T13:52:29;4.65;;;2.70;;
67181;SDS011;54114;53.524;49.396;2022-08-03T13:55:00;6.47;;;2.47;;
67181;SDS011;54114;53.524;49.396;2022-08-03T13:57:29;5.78;;;3.15;;
67181;SDS011;54114;53.524;49.396;2022-08-03T13:59:55;9.57;;;2.60;;
67181;SDS011;54114;53.524;49.396;2022-08-03T14:02:22;11.82;;;3.05;;
67181;SDS011;54114;53.524;49.396;2022-08-03T14:04:49;7.10;;;3.55;;
67181;SDS011;54114;53.524;49.396;2022-08-03T14:07:15;7.80;;;2.70;;
67181;SDS011;54114;53.524;49.396;2022-08-03T14:09:42;4.15;;;2.67;;
67181;SDS011;54114;53.524;49.396;2022-08-03T14:12:09;6.37;;;2.90;;
67181;SDS011;54114;53.524;49.396;2022-08-03T14:14:35;7.37;;;2.87;;
67181;SDS011;54114;53.524;49.396;2022-08-03T14:17:02;5.80;;;3.05;;
67181;SDS011;54114;53.524;49.396;2022-08-03T14:19:29;6.22;;;3.37;;
67181;SDS011;54114;53.524;49.396;2022-08-03T14:21:56;9.35;;;3.50;;
67181;SDS011;54114;53.524;49.396;2022-08-03T14:24:23;4.82;;;2.75;;
67181;SDS011;54114;53.524;49.396;2022-08-03T14:26:50;10.65;;;2.80;;
67181;SDS011;54114;53.524;49.396;2022-08-03T14:29:17;11.20;;;3.35;;
67181;SDS011;54114;53.524;49.396;2022-08-03T14:31:43;4.22;;;2.70;;
67181;SDS011;54114;53.524;49.396;2022-08-03T14:34:10;3.92;;;2.85;;
67181;SDS011;54114;53.524;49.396;2022-08-03T14:36:37;4.65;;;2.90;;
67181;SDS011;54114;53.524;49.396;2022-08-03T14:39:03;5.55;;;3.42;;
67181;SDS011;54114;53.524;49.396;2022-08-03T14:41:30;6.12;;;3.00;;
67181;SDS011;54114;53.524;49.396;2022-08-03T14:43:56;7.65;;;3.10;;
67181;SDS011;54114;53.524;49.396;2022-08-03T14:46:23;6.15;;;3.50;;
67181;SDS011;54114;53.524;49.396;2022-08-03T14:48:50;8.20;;;2.92;;
67181;SDS011;54114;53.524;49.396;2022-08-03T14:51:16;6.25;;;2.47;;
67181;SDS011;54114;53.524;49.396;2022-08-03T14:53:43;5.28;;;2.95;;
67181;SDS011;54114;53.524;49.396;2022-08-03T14:56:10;3.28;;;2.37;;
67181;SDS011;54114;53.524;49.396;2022-08-03T14:58:37;2.65;;;2.28;;
67181;SDS011;54114;53.524;49.396;2022-08-03T15:01:04;8.75;;;2.92;;
67181;SDS011;54114;53.524;49.396;2022-08-03T15:03:31;5.80;;;2.55;;
67181;SDS011;54114;53.524;49.396;2022-08-03T15:05:58;4.03;;;2.67;;
67181;SDS011;54114;53.524;49.396;2022-08-03T15:08:25;4.43;;;2.70;;
67181;SDS011;54114;53.524;49.396;2022-08-03T15:10:53;4.47;;;2.65;;
67181;SDS011;54114;53.524;49.396;2022-08-03T15:13:19;3.60;;;2.37;;
67181;SDS011;54114;53.524;49.396;2022-08-03T15:15:47;3.05;;;2.45;;
67181;SDS011;54114;53.524;49.396;2022-08-03T15:18:14;3.20;;;2.30;;
67181;SDS011;54114;53.524;49.396;2022-08-03T15:20:41;12.27;;;2.87;;
67181;SDS011;54114;53.524;49.396;2022-08-03T15:23:08;6.82;;;3.00;;
67181;SDS011;54114;53.524;49.396;2022-08-03T15:25:34;11.12;;;3.50;;
67181;SDS011;54114;53.524;49.396;2022-08-03T15:28:01;3.85;;;2.80;;
67181;SDS011;54114;53.524;49.396;2022-08-03T15:30:27;3.67;;;3.15;;
67181;SDS011;54114;53.524;49.396;2022-08-03T15:32:55;3.62;;;2.90;;
67181;SDS011;54114;53.524;49.396;2022-08-03T15:35:22;7.30;;;3.08;;
67181;SDS011;54114;53.524;49.396;2022-08-03T15:37:48;4.75;;;2.87;;